createdAt,value
2022-12-14T00:01:28.001Z,11.10
2022-12-14T00:03:56.221Z,10.80
2022-12-14T00:06:24.718Z,11.60
2022-12-14T00:08:53.638Z,10.77
2022-12-14T00:11:22.603Z,11.03
2022-12-14T00:13:53.856Z,9.60
2022-12-14T00:16:22.028Z,10.27
2022-12-14T00:18:50.947Z,9.00
2022-12-14T00:21:18.650Z,9.90
2022-12-14T00:23:47.286Z,8.13
2022-12-14T00:26:16.145Z,8.67
2022-12-14T00:28:44.535Z,9.53
2022-12-14T00:31:14.067Z,9.00
2022-12-14T00:33:41.810Z,8.53
2022-12-14T00:36:10.537Z,6.77
2022-12-14T00:38:38.637Z,6.97
2022-12-14T00:41:06.633Z,8.87
2022-12-14T00:43:34.285Z,8.07
2022-12-14T00:46:02.074Z,6.50
2022-12-14T00:48:31.949Z,7.27
2022-12-14T00:51:00.122Z,5.80
2022-12-14T00:53:27.836Z,6.23
2022-12-14T00:55:55.641Z,6.10
2022-12-14T00:58:24.969Z,6.43
2022-12-14T01:00:59.383Z,6.03
2022-12-14T01:03:27.413Z,4.90
2022-12-14T01:05:56.784Z,7.17
2022-12-14T01:08:24.534Z,6.73
2022-12-14T01:10:53.250Z,6.87
2022-12-14T01:13:20.908Z,6.20
2022-12-14T01:15:48.677Z,6.47
2022-12-14T01:18:16.440Z,5.33
2022-12-14T01:20:44.097Z,6.13
2022-12-14T01:23:13.153Z,6.20
2022-12-14T01:25:40.811Z,4.83
2022-12-14T01:28:08.658Z,7.13
2022-12-14T01:30:36.350Z,5.93
2022-12-14T01:33:04.069Z,6.70
2022-12-14T01:35:31.732Z,5.50
2022-12-14T01:37:59.345Z,6.17
2022-12-14T01:40:28.405Z,6.93
2022-12-14T01:42:56.049Z,5.47
2022-12-14T01:45:23.818Z,6.73
2022-12-14T01:47:54.940Z,5.53
2022-12-14T01:50:27.197Z,6.53
2022-12-14T01:52:57.726Z,7.00
2022-12-14T01:55:26.778Z,6.50
2022-12-14T01:57:59.289Z,5.90
2022-12-14T02:00:26.945Z,6.73
2022-12-14T02:02:57.044Z,6.93
2022-12-14T02:05:25.279Z,5.97
2022-12-14T02:07:54.504Z,7.13
2022-12-14T02:10:23.736Z,6.83
2022-12-14T02:12:53.836Z,7.50
2022-12-14T02:15:22.901Z,6.80
2022-12-14T02:17:50.567Z,5.87
2022-12-14T02:20:18.635Z,5.70
2022-12-14T02:23:05.380Z,5.83
2022-12-14T02:25:58.997Z,6.40
2022-12-14T02:28:45.601Z,5.97
2022-12-14T02:31:16.570Z,5.93
2022-12-14T02:33:49.953Z,6.13
2022-12-14T02:36:22.030Z,6.20
2022-12-14T02:38:55.962Z,5.03
2022-12-14T02:41:25.126Z,6.07
2022-12-14T02:44:00.000Z,6.67
2022-12-14T02:46:33.777Z,6.40
2022-12-14T02:49:04.631Z,6.77
2022-12-14T02:51:36.891Z,5.87
2022-12-14T02:54:05.723Z,6.53
2022-12-14T02:56:37.183Z,6.03
2022-12-14T02:59:07.826Z,6.27
2022-12-14T03:01:37.950Z,6.30
2022-12-14T03:04:06.212Z,6.30
2022-12-14T03:06:33.867Z,6.23
2022-12-14T03:09:03.563Z,5.70
2022-12-14T03:11:32.939Z,6.10
2022-12-14T03:14:03.955Z,6.00
2022-12-14T03:16:32.520Z,5.57
2022-12-14T03:19:03.072Z,5.67
2022-12-14T03:21:33.270Z,6.40
2022-12-14T03:24:02.477Z,5.87
2022-12-14T03:26:32.660Z,6.67
2022-12-14T03:29:01.992Z,5.50
2022-12-14T03:31:32.827Z,5.57
2022-12-14T03:34:03.670Z,5.83
2022-12-14T03:36:34.704Z,6.07
2022-12-14T03:39:04.197Z,5.57
2022-12-14T03:41:35.088Z,6.17
2022-12-14T03:44:09.479Z,5.13
2022-12-14T03:46:40.604Z,6.27
2022-12-14T03:49:16.219Z,5.53
2022-12-14T03:51:51.560Z,6.10
2022-12-14T03:54:22.578Z,5.30
2022-12-14T03:56:53.349Z,5.40
2022-12-14T03:59:27.373Z,5.60
2022-12-14T04:01:59.660Z,4.90
2022-12-14T04:04:31.329Z,5.47
2022-12-14T04:07:01.333Z,5.23
2022-12-14T04:09:31.997Z,5.30
2022-12-14T04:12:23.285Z,6.03
2022-12-14T04:15:11.675Z,5.60
2022-12-14T04:17:58.417Z,5.73
2022-12-14T04:20:29.153Z,5.20
2022-12-14T04:22:58.562Z,5.67
2022-12-14T04:26:00.633Z,6.47
2022-12-14T04:28:51.738Z,6.40
2022-12-14T04:31:20.687Z,6.87
2022-12-14T04:33:51.065Z,5.83
2022-12-14T04:36:23.977Z,5.77
2022-12-14T04:38:54.818Z,6.37
2022-12-14T04:41:24.394Z,5.97
2022-12-14T04:43:53.985Z,5.30
2022-12-14T04:46:22.884Z,6.00
2022-12-14T04:48:52.313Z,6.30
2022-12-14T04:51:26.339Z,6.13
2022-12-14T04:53:56.730Z,5.97
2022-12-14T04:56:26.145Z,5.57
2022-12-14T04:58:53.885Z,5.13
2022-12-14T05:01:27.910Z,5.13
2022-12-14T05:04:00.194Z,5.73
2022-12-14T05:06:34.160Z,4.83
2022-12-14T05:09:08.226Z,6.27
2022-12-14T05:11:54.555Z,5.73
2022-12-14T05:14:27.568Z,5.77
2022-12-14T05:16:55.352Z,6.10
2022-12-14T05:19:26.662Z,6.30
2022-12-14T05:21:56.320Z,5.47
2022-12-14T05:24:24.021Z,5.73
2022-12-14T05:26:51.694Z,5.23
2022-12-14T05:29:19.548Z,5.33
2022-12-14T05:31:49.303Z,4.90
2022-12-14T05:34:17.261Z,6.27
2022-12-14T05:36:45.096Z,6.67
2022-12-14T05:39:14.172Z,6.43
2022-12-14T05:41:41.853Z,7.03
2022-12-14T05:44:09.837Z,6.57
2022-12-14T05:46:37.532Z,6.50
2022-12-14T05:49:05.322Z,6.40
2022-12-14T05:51:33.137Z,7.07
2022-12-14T05:54:00.796Z,7.10
2022-12-14T05:56:29.832Z,6.57
2022-12-14T05:58:57.776Z,8.33
2022-12-14T06:01:25.552Z,8.80
2022-12-14T06:03:53.748Z,7.97
2022-12-14T06:06:22.086Z,9.00
2022-12-14T06:08:49.795Z,8.67
2022-12-14T06:11:18.742Z,9.00
2022-12-14T06:13:48.114Z,9.70
2022-12-14T06:16:17.952Z,10.07
2022-12-14T06:18:46.148Z,10.27
2022-12-14T06:21:14.205Z,10.80
2022-12-14T06:23:42.099Z,12.73
2022-12-14T06:26:10.430Z,13.47
2022-12-14T06:28:41.019Z,12.87
2022-12-14T06:31:15.724Z,13.07
2022-12-14T06:33:43.687Z,14.23
2022-12-14T06:36:16.932Z,13.10
2022-12-14T06:38:44.670Z,12.77
2022-12-14T06:41:13.247Z,13.10
2022-12-14T06:43:40.990Z,13.87
2022-12-14T06:46:15.037Z,15.37
2022-12-14T06:48:43.641Z,15.43
2022-12-14T06:51:11.601Z,12.13
2022-12-14T06:53:39.291Z,16.10
2022-12-14T06:56:08.309Z,16.63
2022-12-14T06:58:36.173Z,16.83
2022-12-14T07:01:04.344Z,16.50
2022-12-14T07:03:33.442Z,15.37
2022-12-14T07:06:01.703Z,17.10
2022-12-14T07:08:30.146Z,16.47
2022-12-14T07:11:02.266Z,15.37
2022-12-14T07:13:30.718Z,16.30
2022-12-14T07:15:59.938Z,14.53
2022-12-14T07:18:28.105Z,14.23
2022-12-14T07:20:58.142Z,15.10
2022-12-14T07:23:28.020Z,15.57
2022-12-14T07:26:01.665Z,12.80
2022-12-14T07:28:29.493Z,14.50
2022-12-14T07:30:57.339Z,14.63
2022-12-14T07:33:25.369Z,17.07
2022-12-14T07:35:53.617Z,14.50
2022-12-14T07:38:22.614Z,15.30
2022-12-14T07:40:51.268Z,13.13
2022-12-14T07:43:19.228Z,13.40
2022-12-14T07:45:46.844Z,12.70
2022-12-14T07:48:14.507Z,14.40
2022-12-14T07:50:42.153Z,15.33
2022-12-14T07:53:09.787Z,15.43
2022-12-14T07:55:38.804Z,14.43
2022-12-14T07:58:06.520Z,16.53
2022-12-14T08:00:34.145Z,16.10
2022-12-14T08:03:01.791Z,14.40
2022-12-14T08:05:29.461Z,13.93
2022-12-14T08:07:57.075Z,14.77
2022-12-14T08:10:24.743Z,14.20
2022-12-14T08:12:53.779Z,15.10
2022-12-14T08:15:21.395Z,13.90
2022-12-14T08:17:49.047Z,16.67
2022-12-14T08:20:16.919Z,17.87
2022-12-14T08:22:44.586Z,14.67
2022-12-14T08:25:12.234Z,16.97
2022-12-14T08:27:39.897Z,16.90
2022-12-14T08:30:09.907Z,17.87
2022-12-14T08:32:37.570Z,15.50
2022-12-14T08:35:05.636Z,16.00
2022-12-14T08:37:33.291Z,20.23
2022-12-14T08:40:00.906Z,19.63
2022-12-14T08:42:28.674Z,18.73
2022-12-14T08:44:56.269Z,11.87
2022-12-14T08:47:25.278Z,11.30
2022-12-14T08:49:54.016Z,11.73
2022-12-14T08:52:22.587Z,12.27
2022-12-14T08:54:50.208Z,13.93
2022-12-14T08:57:17.871Z,15.00
2022-12-14T09:00:01.267Z,13.70
2022-12-14T09:02:31.187Z,13.47
2022-12-14T09:04:58.964Z,12.40
2022-12-14T09:07:26.635Z,9.50
2022-12-14T09:09:54.306Z,9.60
2022-12-14T09:12:22.013Z,12.23
2022-12-14T09:14:49.719Z,11.93
2022-12-14T09:17:17.938Z,10.73
2022-12-14T09:19:46.957Z,9.93
2022-12-14T09:22:14.693Z,7.60
2022-12-14T09:24:42.425Z,8.53
2022-12-14T09:27:10.189Z,10.20
2022-12-14T09:29:37.819Z,9.20
2022-12-14T09:32:05.819Z,9.90
2022-12-14T09:34:33.556Z,11.30
2022-12-14T09:37:04.717Z,13.57
2022-12-14T09:39:32.485Z,12.37
2022-12-14T09:42:04.211Z,11.63
2022-12-14T09:44:38.100Z,12.53
2022-12-14T09:47:07.788Z,11.07
2022-12-14T09:49:39.392Z,12.27
2022-12-14T09:52:11.410Z,10.20
2022-12-14T09:54:40.460Z,7.20
2022-12-14T09:57:11.771Z,9.27
2022-12-14T09:59:39.545Z,8.87
2022-12-14T10:02:31.072Z,7.40
2022-12-14T10:05:07.574Z,8.60
2022-12-14T10:07:39.547Z,9.13
2022-12-14T10:10:14.610Z,7.33
2022-12-14T10:12:49.025Z,7.43
2022-12-14T10:15:22.293Z,7.37
2022-12-14T10:18:33.904Z,8.80
2022-12-14T10:21:04.378Z,8.57
2022-12-14T10:23:34.061Z,6.20
2022-12-14T10:26:03.621Z,8.57
2022-12-14T10:28:38.381Z,6.03
2022-12-14T10:31:07.298Z,7.27
2022-12-14T10:33:34.933Z,13.53
2022-12-14T10:36:06.999Z,6.67
2022-12-14T10:38:46.117Z,6.60
2022-12-14T10:41:20.933Z,6.23
2022-12-14T10:43:53.131Z,7.67
2022-12-14T10:46:24.248Z,9.27
2022-12-14T10:48:55.626Z,10.73
2022-12-14T10:51:25.891Z,7.87
2022-12-14T10:53:57.137Z,9.03
2022-12-14T10:56:27.758Z,9.27
2022-12-14T10:59:20.744Z,10.17
2022-12-14T11:01:49.680Z,8.93
2022-12-14T11:04:21.611Z,7.23
2022-12-14T11:06:49.706Z,5.57
2022-12-14T11:09:22.702Z,6.80
2022-12-14T11:11:56.175Z,6.47
2022-12-14T11:14:24.517Z,6.67
2022-12-14T11:16:52.328Z,6.40
2022-12-14T11:19:21.422Z,8.27
2022-12-14T11:21:49.760Z,5.93
2022-12-14T11:24:26.214Z,6.23
2022-12-14T11:26:54.866Z,7.93
2022-12-14T11:29:27.050Z,7.23
2022-12-14T11:31:54.830Z,6.80
2022-12-14T11:34:24.675Z,7.33
2022-12-14T11:36:52.466Z,10.17
2022-12-14T11:39:22.573Z,6.77
2022-12-14T11:41:52.485Z,8.87
2022-12-14T11:44:24.324Z,6.20
2022-12-14T11:46:53.880Z,6.60
2022-12-14T11:49:23.561Z,7.57
2022-12-14T11:52:02.497Z,7.83
2022-12-14T11:54:30.583Z,7.13
2022-12-14T11:57:01.168Z,7.13
2022-12-14T11:59:31.543Z,7.37
2022-12-14T12:02:08.040Z,7.47
2022-12-14T12:04:43.405Z,6.93
2022-12-14T12:07:13.552Z,8.27
2022-12-14T12:09:42.848Z,9.03
2022-12-14T12:12:18.580Z,9.67
2022-12-14T12:14:47.892Z,8.63
2022-12-14T12:17:19.238Z,8.73
2022-12-14T12:19:47.836Z,9.17
2022-12-14T12:22:16.442Z,9.50
2022-12-14T12:25:08.564Z,5.63
2022-12-14T12:27:39.535Z,7.87
2022-12-14T12:30:09.514Z,7.70
2022-12-14T12:32:40.974Z,7.37
2022-12-14T12:35:12.341Z,6.53
2022-12-14T12:37:43.130Z,7.40
2022-12-14T12:40:14.741Z,7.27
2022-12-14T12:42:47.035Z,7.43
2022-12-14T12:45:17.996Z,6.57
2022-12-14T12:47:48.456Z,9.60
2022-12-14T12:50:17.227Z,9.90
2022-12-14T12:52:49.820Z,9.83
2022-12-14T12:55:18.942Z,10.33
2022-12-14T12:57:50.060Z,7.53
2022-12-14T13:00:19.077Z,7.80
2022-12-14T13:02:50.458Z,6.53
2022-12-14T13:08:10.124Z,6.17
2022-12-14T13:10:55.753Z,4.83
2022-12-14T13:13:31.989Z,5.37
2022-12-14T13:16:01.436Z,6.30
2022-12-14T13:18:57.805Z,5.67
2022-12-14T13:21:23.735Z,6.10
2022-12-14T13:23:51.463Z,5.40
2022-12-14T13:26:56.257Z,7.33
2022-12-14T13:29:21.199Z,4.73
2022-12-14T13:31:54.182Z,6.47
2022-12-14T13:34:25.783Z,6.80
2022-12-14T13:37:05.943Z,6.33
2022-12-14T13:39:45.480Z,5.73
2022-12-14T13:42:23.265Z,6.13
2022-12-14T13:44:57.328Z,6.47
2022-12-14T13:47:28.868Z,5.57
2022-12-14T13:50:35.308Z,5.63
2022-12-14T13:52:46.025Z,6.60
2022-12-14T13:55:27.251Z,6.13
2022-12-14T13:57:55.490Z,8.93
2022-12-14T14:00:38.003Z,6.90
2022-12-14T14:03:07.161Z,7.47
2022-12-14T14:05:38.412Z,6.87
2022-12-14T14:08:15.244Z,8.80
2022-12-14T14:10:43.059Z,7.30
2022-12-14T14:13:25.720Z,5.50
2022-12-14T14:16:26.722Z,6.10
2022-12-14T14:18:50.222Z,6.40
2022-12-14T14:21:29.727Z,7.67
2022-12-14T14:23:58.599Z,5.97
2022-12-14T14:26:27.569Z,7.03
2022-12-14T14:29:06.788Z,8.67
2022-12-14T14:31:48.468Z,8.03
2022-12-14T14:34:22.133Z,7.90
2022-12-14T14:36:50.791Z,7.83
2022-12-14T14:39:56.108Z,7.50
2022-12-14T14:42:24.683Z,7.10
2022-12-14T14:44:53.216Z,6.77
2022-12-14T14:47:25.024Z,6.73
2022-12-14T14:49:56.116Z,6.93
2022-12-14T14:52:38.940Z,7.40
2022-12-14T14:55:51.600Z,8.63
2022-12-14T14:58:22.542Z,7.87
2022-12-14T15:00:51.813Z,7.33
2022-12-14T15:03:22.397Z,8.97
2022-12-14T15:05:51.699Z,8.07
2022-12-14T15:08:20.707Z,8.43
2022-12-14T15:10:49.386Z,8.13
2022-12-14T15:13:20.001Z,8.17
2022-12-14T15:15:48.900Z,10.00
2022-12-14T15:18:22.014Z,10.13
2022-12-14T15:20:59.017Z,11.83
2022-12-14T15:23:27.700Z,9.37
2022-12-14T15:26:00.107Z,14.80
2022-12-14T15:28:28.928Z,12.73
2022-12-14T15:30:57.546Z,12.17
2022-12-14T15:33:26.658Z,15.77
2022-12-14T15:35:54.537Z,12.20
2022-12-14T15:38:25.659Z,6.60
2022-12-14T15:40:57.157Z,6.20
2022-12-14T15:43:25.624Z,5.83
2022-12-14T15:45:54.328Z,6.20
2022-12-14T15:48:24.048Z,7.17
2022-12-14T15:50:54.335Z,7.53
2022-12-14T15:53:28.226Z,7.00
2022-12-14T15:56:01.915Z,7.73
2022-12-14T15:58:33.380Z,7.93
2022-12-14T16:01:07.790Z,8.10
2022-12-14T16:03:37.755Z,7.17
2022-12-14T16:06:06.092Z,7.53
2022-12-14T16:08:35.844Z,7.03
2022-12-14T16:11:05.490Z,7.73
2022-12-14T16:13:34.972Z,7.90
2022-12-14T16:16:06.355Z,7.17
2022-12-14T16:18:34.118Z,6.50
2022-12-14T16:21:03.901Z,6.93
2022-12-14T16:23:33.139Z,7.23
2022-12-14T16:26:04.047Z,5.83
2022-12-14T16:28:32.764Z,6.23
2022-12-14T16:31:02.657Z,6.90
2022-12-14T16:33:30.876Z,7.33
2022-12-14T16:36:00.296Z,7.37
2022-12-14T16:38:27.959Z,8.13
2022-12-14T16:40:57.253Z,7.57
2022-12-14T16:43:28.940Z,7.77
2022-12-14T16:46:07.976Z,8.97
2022-12-14T16:48:37.210Z,8.70
2022-12-14T16:51:22.003Z,8.30
2022-12-14T16:54:01.503Z,7.40
2022-12-14T16:56:32.173Z,8.77
2022-12-14T16:59:03.374Z,6.27
2022-12-14T17:01:38.904Z,8.17
2022-12-14T17:04:07.880Z,7.63
2022-12-14T17:06:41.297Z,9.27
2022-12-14T17:09:19.934Z,7.00
2022-12-14T17:11:48.664Z,8.00
2022-12-14T17:14:18.436Z,6.17
2022-12-14T17:16:46.580Z,7.03
2022-12-14T17:19:21.320Z,7.20
2022-12-14T17:21:50.382Z,7.37
2022-12-14T17:24:18.627Z,6.83
2022-12-14T17:26:47.071Z,7.37
2022-12-14T17:29:21.948Z,7.20
2022-12-14T17:31:50.360Z,7.47
2022-12-14T17:34:18.768Z,8.57
2022-12-14T17:36:46.516Z,9.00
2022-12-14T17:39:14.231Z,9.60
2022-12-14T17:41:42.960Z,10.17
2022-12-14T17:44:14.057Z,8.03
2022-12-14T17:46:43.806Z,9.03
2022-12-14T17:49:13.372Z,9.93
2022-12-14T17:51:42.399Z,10.97
2022-12-14T17:54:14.453Z,9.07
2022-12-14T17:56:42.168Z,10.90
2022-12-14T17:59:09.786Z,13.17
2022-12-14T18:01:37.577Z,11.63
2022-12-14T18:04:08.187Z,10.03
2022-12-14T18:06:36.068Z,9.53
2022-12-14T18:09:05.585Z,11.77
2022-12-14T18:11:33.300Z,12.10
2022-12-14T18:14:01.009Z,11.30
2022-12-14T18:16:29.458Z,12.50
2022-12-14T18:18:58.271Z,14.07
2022-12-14T18:21:28.267Z,12.53
2022-12-14T18:23:56.696Z,15.17
2022-12-14T18:26:24.591Z,11.90
2022-12-14T18:28:53.781Z,12.80
2022-12-14T18:31:23.671Z,12.37
2022-12-14T18:33:51.711Z,11.57
2022-12-14T18:36:21.590Z,12.73
2022-12-14T18:38:51.057Z,12.13
2022-12-14T18:41:19.696Z,11.00
2022-12-14T18:43:48.393Z,11.87
2022-12-14T18:46:16.339Z,10.43
2022-12-14T18:48:44.551Z,9.37
2022-12-14T18:51:13.722Z,11.23
2022-12-14T18:53:42.676Z,11.10
2022-12-14T18:56:12.759Z,11.50
2022-12-14T18:58:42.200Z,11.53
2022-12-14T19:01:14.279Z,11.20
2022-12-14T19:03:42.216Z,10.23
2022-12-14T19:09:00.154Z,12.23
2022-12-14T19:11:32.118Z,12.63
2022-12-14T19:13:59.797Z,14.33
2022-12-14T19:16:27.596Z,15.10
2022-12-14T19:18:55.281Z,14.17
2022-12-14T19:21:23.826Z,13.03
2022-12-14T19:23:51.507Z,12.60
2022-12-14T19:26:19.231Z,12.53
2022-12-14T19:28:48.312Z,11.13
2022-12-14T19:31:16.049Z,14.10
2022-12-14T19:33:43.796Z,11.67
2022-12-14T19:36:11.883Z,14.17
2022-12-14T19:38:39.563Z,15.23
2022-12-14T19:41:08.443Z,14.90
2022-12-14T19:43:36.407Z,15.13
2022-12-14T19:46:08.069Z,15.97
2022-12-14T19:48:35.864Z,15.20
2022-12-14T19:51:04.205Z,14.33
2022-12-14T19:53:35.323Z,14.23
2022-12-14T19:56:03.733Z,14.97
2022-12-14T19:58:31.458Z,14.53
2022-12-14T20:00:59.070Z,14.97
2022-12-14T20:03:28.799Z,14.40
2022-12-14T20:05:58.629Z,16.67
2022-12-14T20:08:26.372Z,16.60
2022-12-14T20:10:54.151Z,14.70
2022-12-14T20:13:22.837Z,15.67
2022-12-14T20:15:50.827Z,13.23
2022-12-14T20:18:18.678Z,15.57
2022-12-14T20:20:49.630Z,14.67
2022-12-14T20:23:18.533Z,14.17
2022-12-14T20:25:46.271Z,12.00
2022-12-14T20:28:14.188Z,12.73
2022-12-14T20:30:43.432Z,12.80
2022-12-14T20:33:11.090Z,12.97
2022-12-14T20:35:38.813Z,13.13
2022-12-14T20:38:07.969Z,24.43
2022-12-14T20:40:39.092Z,21.93
2022-12-14T20:43:07.130Z,22.23
2022-12-14T20:45:37.984Z,19.30
2022-12-14T20:48:06.022Z,20.70
2022-12-14T20:50:33.673Z,17.10
2022-12-14T20:53:01.350Z,20.60
2022-12-14T20:55:30.418Z,17.77
2022-12-14T20:57:58.031Z,18.47
2022-12-14T21:00:25.974Z,15.97
2022-12-14T21:02:53.760Z,16.93
2022-12-14T21:05:21.530Z,14.63
2022-12-14T21:07:49.234Z,13.43
2022-12-14T21:10:16.989Z,12.67
2022-12-14T21:12:49.121Z,12.10
2022-12-14T21:15:17.015Z,13.70
2022-12-14T21:17:44.812Z,17.77
2022-12-14T21:20:13.314Z,14.40
2022-12-14T21:22:40.954Z,12.87
2022-12-14T21:25:08.871Z,12.97
2022-12-14T21:27:38.480Z,11.90
2022-12-14T21:30:09.560Z,10.43
2022-12-14T21:32:37.415Z,11.10
2022-12-14T21:35:05.364Z,10.33
2022-12-14T21:37:33.169Z,12.43
2022-12-14T21:40:03.410Z,13.50
2022-12-14T21:42:30.100Z,14.40
2022-12-14T21:44:57.837Z,14.07
2022-12-14T21:47:27.774Z,12.60
2022-12-14T21:49:55.526Z,13.47
2022-12-14T21:52:24.953Z,9.10
2022-12-14T21:54:52.647Z,9.37
2022-12-14T21:57:38.487Z,11.23
2022-12-14T22:00:06.678Z,12.03
2022-12-14T22:02:36.027Z,11.63
2022-12-14T22:05:03.821Z,9.83
2022-12-14T22:07:33.827Z,12.63
2022-12-14T22:10:01.846Z,11.20
2022-12-14T22:12:30.035Z,11.63
2022-12-14T22:14:57.669Z,11.67
2022-12-14T22:17:25.458Z,11.00
2022-12-14T22:19:55.343Z,11.40
2022-12-14T22:22:23.219Z,11.93
2022-12-14T22:24:51.678Z,9.37
2022-12-14T22:27:19.874Z,13.70
2022-12-14T22:29:47.501Z,13.80
2022-12-14T22:32:15.929Z,13.63
2022-12-14T22:34:43.708Z,13.53
2022-12-14T22:37:14.065Z,13.73
2022-12-14T22:39:41.902Z,11.27
2022-12-14T22:42:09.684Z,14.23
2022-12-14T22:44:37.737Z,12.73
2022-12-14T22:47:05.859Z,12.57
2022-12-14T22:49:33.525Z,12.43
2022-12-14T22:52:01.179Z,9.60
2022-12-14T22:54:30.700Z,13.20
2022-12-14T22:56:59.645Z,12.93
2022-12-14T22:59:30.436Z,13.93
2022-12-14T23:01:59.505Z,13.03
2022-12-14T23:04:27.444Z,8.47
2022-12-14T23:06:57.843Z,10.93
2022-12-14T23:09:43.088Z,12.03
2022-12-14T23:12:29.849Z,11.47
2022-12-14T23:15:14.928Z,11.80
2022-12-14T23:18:00.063Z,9.67
2022-12-14T23:20:45.001Z,13.73
2022-12-14T23:23:30.885Z,13.37
2022-12-14T23:26:19.991Z,13.00
2022-12-14T23:29:06.148Z,12.00
2022-12-14T23:31:51.047Z,12.87
2022-12-14T23:34:36.226Z,9.33
2022-12-14T23:37:21.361Z,12.40
2022-12-14T23:40:06.522Z,9.13
2022-12-14T23:42:51.455Z,14.80
2022-12-14T23:45:38.427Z,13.60
2022-12-14T23:48:23.545Z,13.57
2022-12-14T23:51:08.791Z,12.40
2022-12-14T23:53:53.755Z,9.77
2022-12-14T23:56:39.091Z,12.90
2022-12-14T23:59:29.820Z,14.70
